Time;durP1;ratioP1;P1;durP2;ratioP2;P2;SDS_P1;SDS_P2;PMS_P1;PMS_P2;Temp;Humidity;BMP_temperature;BMP_pressure;BME280_temperature;BME280_humidity;BME280_pressure;Samples;Min_cycle;Max_cycle;Signal;HPM_P1;HPM_P2
2023/07/25 00:01:22;;;;;;;;;;;14.20;76.70;;;;;;4968067;28;20366;-74
2023/07/25 00:03:48;;;;;;;;;;;14.20;76.70;;;;;;4969332;28;19918;-75
2023/07/25 00:06:13;;;;;;;;;;;14.20;76.70;;;;;;4969484;28;20362;-75
2023/07/25 00:08:39;;;;;;;;;;;14.10;76.70;;;;;;4969441;28;20279;-75
2023/07/25 00:11:04;;;;;;;;;;;14.10;76.70;;;;;;4984273;28;19962;-75
2023/07/25 00:13:30;;;;;;;;;;;14.10;76.70;;;;;;4984162;28;19987;-74
2023/07/25 00:15:56;;;;;;;;;;;14.00;76.70;;;;;;4969305;28;19924;-74
2023/07/25 00:18:22;;;;;;;;;;;14.00;76.70;;;;;;4969423;28;19910;-75
2023/07/25 00:20:47;;;;;;;;;;;14.00;76.70;;;;;;4969545;28;19956;-74
2023/07/25 00:23:13;;;;;;;;;;;13.90;76.60;;;;;;4984079;28;20383;-75
2023/07/25 00:25:38;;;;;;;;;;;13.90;76.60;;;;;;4969268;28;19918;-75
2023/07/25 00:28:04;;;;;;;;;;;13.90;76.60;;;;;;4984312;28;19920;-75
2023/07/25 00:30:30;;;;;;;;;;;13.80;76.70;;;;;;4968222;28;20378;-75
2023/07/25 00:32:55;;;;;;;;;;;13.80;76.70;;;;;;4975169;28;19917;-75
2023/07/25 00:35:21;;;;;;;;;;;13.70;76.60;;;;;;4975607;28;19961;-75
2023/07/25 00:37:46;;;;;;;;;;;13.70;76.60;;;;;;4975678;28;19925;-75
2023/07/25 00:40:12;;;;;;;;;;;13.70;76.60;;;;;;4975499;28;20306;-75
2023/07/25 00:42:38;;;;;;;;;;;13.70;76.70;;;;;;4974044;28;19922;-75
2023/07/25 00:45:04;;;;;;;;;;;13.60;76.60;;;;;;4975775;28;19918;-75
2023/07/25 00:47:29;;;;;;;;;;;13.60;76.60;;;;;;4975550;28;20367;-74
2023/07/25 00:49:55;;;;;;;;;;;13.60;76.60;;;;;;4975436;28;20453;-75
2023/07/25 00:52:21;;;;;;;;;;;13.50;76.60;;;;;;4975371;28;19910;-75
2023/07/25 00:54:48;;;;;;;;;;;13.50;76.60;;;;;;4975426;28;19918;-75
2023/07/25 00:57:15;;;;;;;;;;;13.50;76.60;;;;;;4975431;28;19914;-75
2023/07/25 00:59:41;;;;;;;;;;;13.50;76.70;;;;;;4975346;28;20009;-75
2023/07/25 01:02:07;;;;;;;;;;;13.40;76.70;;;;;;4975339;28;20418;-75
2023/07/25 01:04:32;;;;;;;;;;;13.40;76.70;;;;;;4975349;28;19918;-75
2023/07/25 01:06:59;;;;;;;;;;;13.30;76.60;;;;;;4990394;28;19953;-75
2023/07/25 01:09:54;;;;;;;;;;;13.40;76.60;;;;;;4975532;28;19910;-75
2023/07/25 01:12:19;;;;;;;;;;;13.30;76.60;;;;;;4949289;28;19914;-75
2023/07/25 01:14:45;;;;;;;;;;;13.30;76.60;;;;;;4975780;28;19917;-74
2023/07/25 01:17:12;;;;;;;;;;;13.20;76.50;;;;;;4990505;28;19921;-75
2023/07/25 01:19:39;;;;;;;;;;;13.20;76.60;;;;;;4990348;28;20282;-75
2023/07/25 01:22:06;;;;;;;;;;;13.20;76.60;;;;;;4990019;28;19918;-75
2023/07/25 01:24:31;;;;;;;;;;;13.10;76.60;;;;;;4975220;28;19929;-75
2023/07/25 01:26:57;;;;;;;;;;;13.10;76.60;;;;;;4990411;28;19914;-75
2023/07/25 01:29:22;;;;;;;;;;;13.10;76.70;;;;;;4975045;28;20006;-75
2023/07/25 01:31:48;;;;;;;;;;;13.00;76.60;;;;;;4990192;28;19914;-75
2023/07/25 01:34:13;;;;;;;;;;;13.00;76.50;;;;;;4975145;28;20012;-75
2023/07/25 01:36:39;;;;;;;;;;;12.90;76.40;;;;;;4975100;28;19972;-74
2023/07/25 01:39:04;;;;;;;;;;;12.90;76.40;;;;;;4990080;28;20385;-75
2023/07/25 01:41:30;;;;;;;;;;;12.90;76.40;;;;;;4989980;28;20338;-75
2023/07/25 01:43:56;;;;;;;;;;;12.80;76.40;;;;;;4972365;28;20004;-74
2023/07/25 01:46:21;;;;;;;;;;;12.80;76.40;;;;;;4972077;28;20298;-75
2023/07/25 01:48:47;;;;;;;;;;;12.70;76.30;;;;;;4986945;28;19925;-75
2023/07/25 01:51:12;;;;;;;;;;;12.80;76.50;;;;;;4971880;28;19934;-75
2023/07/25 01:53:38;;;;;;;;;;;12.70;76.30;;;;;;4954466;28;20009;-75
2023/07/25 01:56:03;;;;;;;;;;;12.60;76.20;;;;;;4971902;28;19922;-75
2023/07/25 01:58:29;;;;;;;;;;;12.60;76.20;;;;;;4971648;28;20086;-75
2023/07/25 02:00:58;;;;;;;;;;;12.60;76.30;;;;;;4986661;28;19921;-75
2023/07/25 02:03:23;;;;;;;;;;;12.50;76.30;;;;;;4954170;28;19948;-75
2023/07/25 02:05:50;;;;;;;;;;;12.50;76.30;;;;;;4971598;28;20377;-75
2023/07/25 02:08:16;;;;;;;;;;;12.40;76.20;;;;;;4986444;28;19918;-75
2023/07/25 02:10:41;;;;;;;;;;;12.40;76.30;;;;;;4971591;28;19910;-75
2023/07/25 02:13:07;;;;;;;;;;;12.30;76.20;;;;;;4971457;28;19919;-75
2023/07/25 02:15:33;;;;;;;;;;;12.30;76.20;;;;;;4971485;28;19914;-74
2023/07/25 02:17:58;;;;;;;;;;;12.30;76.30;;;;;;4971471;28;19917;-75
2023/07/25 02:20:25;;;;;;;;;;;12.20;76.30;;;;;;4971866;28;20248;-75
2023/07/25 02:22:51;;;;;;;;;;;12.20;76.30;;;;;;4986017;28;19918;-75
2023/07/25 02:25:17;;;;;;;;;;;12.20;76.30;;;;;;4971453;28;19910;-75
2023/07/25 02:27:42;;;;;;;;;;;12.20;76.30;;;;;;4971426;28;19914;-75
2023/07/25 02:30:08;;;;;;;;;;;12.20;76.30;;;;;;4986090;28;19926;-75
2023/07/25 02:32:33;;;;;;;;;;;12.20;76.30;;;;;;4970118;28;19914;-75
2023/07/25 02:34:59;;;;;;;;;;;12.20;76.30;;;;;;4971153;28;19969;-75
2023/07/25 02:37:25;;;;;;;;;;;12.10;76.20;;;;;;4969650;28;20366;-74
2023/07/25 02:39:50;;;;;;;;;;;12.10;76.20;;;;;;4971102;28;20017;-75
2023/07/25 02:42:16;;;;;;;;;;;12.10;76.20;;;;;;4970932;28;19947;-75
2023/07/25 02:44:41;;;;;;;;;;;12.10;76.30;;;;;;4970794;28;20429;-75
2023/07/25 02:47:07;;;;;;;;;;;12.10;76.40;;;;;;4985769;28;19918;-74
2023/07/25 02:49:32;;;;;;;;;;;12.00;76.40;;;;;;4985767;28;19923;-75
2023/07/25 02:51:58;;;;;;;;;;;12.00;76.40;;;;;;4970611;28;20041;-75
2023/07/25 02:54:23;;;;;;;;;;;12.00;76.40;;;;;;4985166;28;19933;-75
2023/07/25 02:56:49;;;;;;;;;;;12.10;76.40;;;;;;4971008;28;19915;-74
2023/07/25 02:59:15;;;;;;;;;;;12.00;76.20;;;;;;4970679;28;19914;-75
2023/07/25 03:01:40;;;;;;;;;;;12.00;76.20;;;;;;4953405;28;20329;-74
2023/07/25 03:04:06;;;;;;;;;;;12.00;76.20;;;;;;4970630;28;20004;-75
2023/07/25 03:06:31;;;;;;;;;;;12.00;76.20;;;;;;4985288;28;19925;-75
2023/07/25 03:08:57;;;;;;;;;;;11.90;76.10;;;;;;4969222;28;19931;-75
2023/07/25 03:11:23;;;;;;;;;;;11.90;76.20;;;;;;4970348;28;19949;-75
2023/07/25 03:13:48;;;;;;;;;;;11.90;76.20;;;;;;4985201;28;19921;-75
2023/07/25 03:16:14;;;;;;;;;;;11.90;76.20;;;;;;4985259;28;19921;-75
2023/07/25 03:18:39;;;;;;;;;;;11.90;76.30;;;;;;4970227;28;19921;-74
2023/07/25 03:21:05;;;;;;;;;;;11.90;76.40;;;;;;4970229;28;20007;-75
2023/07/25 03:23:30;;;;;;;;;;;11.90;76.40;;;;;;4985015;28;19923;-75
2023/07/25 03:25:56;;;;;;;;;;;11.90;76.40;;;;;;4970420;28;19921;-75
2023/07/25 03:28:21;;;;;;;;;;;11.90;76.30;;;;;;4985240;28;19918;-74
2023/07/25 03:30:47;;;;;;;;;;;11.90;76.30;;;;;;4969857;28;19944;-75
2023/07/25 03:33:12;;;;;;;;;;;11.90;76.20;;;;;;4984971;28;20001;-75
2023/07/25 03:35:38;;;;;;;;;;;11.90;76.20;;;;;;4984948;28;20524;-75
2023/07/25 03:38:04;;;;;;;;;;;11.90;76.20;;;;;;4985111;28;19960;-75
2023/07/25 03:40:29;;;;;;;;;;;11.80;76.20;;;;;;4969950;28;19910;-75
2023/07/25 03:42:55;;;;;;;;;;;11.80;76.30;;;;;;4984979;28;19924;-74
2023/07/25 03:45:20;;;;;;;;;;;11.80;76.30;;;;;;4969873;28;20283;-75
2023/07/25 03:47:46;;;;;;;;;;;11.80;76.40;;;;;;4969793;28;19914;-75
2023/07/25 03:50:11;;;;;;;;;;;11.80;76.30;;;;;;4969626;28;19910;-75
2023/07/25 03:52:37;;;;;;;;;;;11.80;76.30;;;;;;4970054;28;20033;-75
2023/07/25 03:55:02;;;;;;;;;;;11.80;76.30;;;;;;4969470;28;19918;-75
2023/07/25 03:57:28;;;;;;;;;;;11.80;76.30;;;;;;4968196;28;19915;-75
2023/07/25 03:59:53;;;;;;;;;;;11.80;76.30;;;;;;4984339;28;19961;-75
2023/07/25 04:02:19;;;;;;;;;;;11.80;76.30;;;;;;4969947;28;19918;-74
2023/07/25 04:04:45;;;;;;;;;;;11.90;76.40;;;;;;4984098;28;19918;-74
2023/07/25 04:07:10;;;;;;;;;;;11.90;76.40;;;;;;4983726;28;19937;-75
2023/07/25 04:09:36;;;;;;;;;;;11.90;76.30;;;;;;4969553;28;19918;-75
2023/07/25 04:12:01;;;;;;;;;;;12.00;76.40;;;;;;4969483;28;19921;-75
2023/07/25 04:14:27;;;;;;;;;;;12.00;76.40;;;;;;4969765;28;19921;-75
2023/07/25 04:16:52;;;;;;;;;;;12.00;76.30;;;;;;4969420;28;20020;-75
2023/07/25 04:19:18;;;;;;;;;;;12.10;76.40;;;;;;4969366;28;19914;-75
2023/07/25 04:21:44;;;;;;;;;;;12.20;76.40;;;;;;4987459;28;19967;-75
2023/07/25 04:24:09;;;;;;;;;;;12.20;76.40;;;;;;4968200;28;19918;-74
2023/07/25 04:26:35;;;;;;;;;;;12.20;76.30;;;;;;4984519;28;19917;-74
2023/07/25 04:29:00;;;;;;;;;;;12.20;76.30;;;;;;4969216;28;19922;-75
2023/07/25 04:31:26;;;;;;;;;;;12.30;76.40;;;;;;4967890;28;19924;-75
2023/07/25 04:33:51;;;;;;;;;;;12.30;76.40;;;;;;4969217;28;19984;-75
2023/07/25 04:36:17;;;;;;;;;;;12.30;76.40;;;;;;4969159;28;19914;-75
2023/07/25 04:38:42;;;;;;;;;;;12.30;76.40;;;;;;4969280;28;19961;-75
2023/07/25 04:41:08;;;;;;;;;;;12.30;76.40;;;;;;4969224;28;19914;-75
2023/07/25 04:43:33;;;;;;;;;;;12.40;76.40;;;;;;4967721;28;20025;-74
2023/07/25 04:45:59;;;;;;;;;;;12.40;76.40;;;;;;4983846;28;20378;-75
2023/07/25 04:48:24;;;;;;;;;;;12.40;76.40;;;;;;4969064;28;20271;-74
2023/07/25 04:50:50;;;;;;;;;;;12.40;76.40;;;;;;4969033;28;19957;-74
2023/07/25 04:53:16;;;;;;;;;;;12.40;76.40;;;;;;4984083;28;20010;-75
2023/07/25 04:55:41;;;;;;;;;;;12.40;76.40;;;;;;4968978;28;19917;-74
2023/07/25 04:58:07;;;;;;;;;;;12.40;76.40;;;;;;4968989;28;19958;-74
2023/07/25 05:00:32;;;;;;;;;;;12.40;76.50;;;;;;4968929;28;20359;-75
2023/07/25 05:02:58;;;;;;;;;;;12.50;76.50;;;;;;4983751;28;20260;-74
2023/07/25 05:05:23;;;;;;;;;;;12.50;76.50;;;;;;4983792;28;19914;-75
2023/07/25 05:07:49;;;;;;;;;;;12.50;76.60;;;;;;4983563;28;19920;-75
2023/07/25 05:10:14;;;;;;;;;;;12.50;76.50;;;;;;4983602;28;19925;-75
2023/07/25 05:12:40;;;;;;;;;;;12.60;76.60;;;;;;4983729;28;19914;-74
2023/07/25 05:15:06;;;;;;;;;;;12.70;76.60;;;;;;4967393;28;19918;-75
2023/07/25 05:17:32;;;;;;;;;;;12.70;76.50;;;;;;4969582;28;19917;-74
2023/07/25 05:19:57;;;;;;;;;;;12.80;76.60;;;;;;4972085;28;20414;-75
2023/07/25 05:22:23;;;;;;;;;;;12.90;76.60;;;;;;4972220;28;20269;-75
2023/07/25 05:24:49;;;;;;;;;;;13.00;76.70;;;;;;4987223;28;19950;-75
2023/07/25 05:27:15;;;;;;;;;;;13.00;76.70;;;;;;4987236;28;19965;-75
2023/07/25 05:29:40;;;;;;;;;;;13.10;76.70;;;;;;4986902;28;19926;-75
2023/07/25 05:32:06;;;;;;;;;;;13.20;76.60;;;;;;4986784;28;19918;-74
2023/07/25 05:34:32;;;;;;;;;;;13.30;76.50;;;;;;4986978;28;19914;-75
2023/07/25 05:36:57;;;;;;;;;;;13.30;76.50;;;;;;4986967;28;20295;-75
2023/07/25 05:39:23;;;;;;;;;;;13.40;76.50;;;;;;4972204;28;20287;-74
2023/07/25 05:41:48;;;;;;;;;;;13.40;76.40;;;;;;4971950;28;19914;-74
2023/07/25 05:44:14;;;;;;;;;;;13.50;76.40;;;;;;4971840;28;19965;-74
2023/07/25 05:46:39;;;;;;;;;;;13.50;76.30;;;;;;4971611;28;19922;-74
2023/07/25 05:49:05;;;;;;;;;;;13.40;76.30;;;;;;4971970;28;20430;-75
2023/07/25 05:51:30;;;;;;;;;;;13.40;76.30;;;;;;4971775;28;19922;-75
2023/07/25 05:53:56;;;;;;;;;;;13.40;76.40;;;;;;4986937;28;19921;-74
2023/07/25 05:56:22;;;;;;;;;;;13.30;76.40;;;;;;4971765;28;19991;-74
2023/07/25 05:58:47;;;;;;;;;;;13.30;76.40;;;;;;4971522;28;19910;-74
2023/07/25 06:01:13;;;;;;;;;;;13.30;76.50;;;;;;4986552;28;19914;-74
2023/07/25 06:03:38;;;;;;;;;;;13.30;76.60;;;;;;4971498;28;19922;-74
2023/07/25 06:06:04;;;;;;;;;;;13.30;76.60;;;;;;4971456;28;20016;-75
2023/07/25 06:08:29;;;;;;;;;;;13.40;76.60;;;;;;4986181;28;19938;-75
2023/07/25 06:10:55;;;;;;;;;;;13.40;76.60;;;;;;4971233;28;20400;-75
2023/07/25 06:13:20;;;;;;;;;;;13.50;77.40;;;;;;4986472;28;19914;-74
2023/07/25 06:15:47;;;;;;;;;;;14.30;77.30;;;;;;4971450;28;20017;-75
2023/07/25 06:18:12;;;;;;;;;;;15.60;76.40;;;;;;4986415;28;19925;-75
2023/07/25 06:20:38;;;;;;;;;;;16.90;75.00;;;;;;4986133;28;20009;-75
2023/07/25 06:23:03;;;;;;;;;;;18.00;73.70;;;;;;4953674;28;19910;-75
2023/07/25 06:25:29;;;;;;;;;;;18.60;72.40;;;;;;4971235;28;19953;-75
2023/07/25 06:27:55;;;;;;;;;;;18.50;71.50;;;;;;4971232;28;19918;-75
2023/07/25 06:30:21;;;;;;;;;;;17.80;71.70;;;;;;4969795;28;19938;-75
2023/07/25 06:32:46;;;;;;;;;;;17.30;73.00;;;;;;4970487;28;19921;-75
2023/07/25 06:35:12;;;;;;;;;;;17.40;74.30;;;;;;4985333;28;19918;-76
2023/07/25 06:37:37;;;;;;;;;;;18.10;74.60;;;;;;4970697;28;19914;-77
2023/07/25 06:40:03;;;;;;;;;;;19.10;73.90;;;;;;4952928;28;19922;-76
2023/07/25 06:42:29;;;;;;;;;;;20.00;72.90;;;;;;4970201;28;19914;-77
2023/07/25 06:44:55;;;;;;;;;;;20.80;72.40;;;;;;4985246;28;19936;-77
2023/07/25 06:47:21;;;;;;;;;;;21.40;71.70;;;;;;4970376;28;20018;-77
2023/07/25 06:49:46;;;;;;;;;;;22.00;71.50;;;;;;4970145;28;19981;-77
2023/07/25 06:52:12;;;;;;;;;;;22.30;71.00;;;;;;4970304;28;20418;-77
2023/07/25 06:54:38;;;;;;;;;;;22.30;70.50;;;;;;4970623;28;20370;-77
2023/07/25 06:57:04;;;;;;;;;;;21.70;70.40;;;;;;4970527;28;19914;-76
2023/07/25 06:59:29;;;;;;;;;;;21.10;70.80;;;;;;4970389;28;20541;-76
2023/07/25 07:01:55;;;;;;;;;;;20.40;71.50;;;;;;4984990;28;19953;-77
2023/07/25 07:04:21;;;;;;;;;;;19.70;72.20;;;;;;4970255;28;20013;-76
2023/07/25 07:06:47;;;;;;;;;;;18.90;72.90;;;;;;4968730;28;20005;-77
2023/07/25 07:09:13;;;;;;;;;;;18.40;73.80;;;;;;4970247;28;19973;-76
2023/07/25 07:11:39;;;;;;;;;;;17.90;74.40;;;;;;4984831;28;20388;-77
2023/07/25 07:14:05;;;;;;;;;;;17.50;74.90;;;;;;4985200;28;19910;-76
2023/07/25 07:16:30;;;;;;;;;;;17.30;75.40;;;;;;4970004;28;19917;-76
2023/07/25 07:18:56;;;;;;;;;;;17.40;76.40;;;;;;4969859;28;19915;-76
2023/07/25 07:21:22;;;;;;;;;;;18.20;77.30;;;;;;4970084;28;19914;-77
2023/07/25 07:23:47;;;;;;;;;;;19.50;76.80;;;;;;4970305;28;19922;-76
2023/07/25 07:26:13;;;;;;;;;;;21.00;75.70;;;;;;4973590;28;19914;-77
2023/07/25 07:28:39;;;;;;;;;;;22.20;74.60;;;;;;4971621;28;19950;-77
2023/07/25 07:31:05;;;;;;;;;;;23.20;73.60;;;;;;4969850;28;19918;-77
2023/07/25 07:33:30;;;;;;;;;;;24.00;73.50;;;;;;4984396;28;19914;-77
2023/07/25 07:35:56;;;;;;;;;;;24.80;73.20;;;;;;4984560;28;19922;-77
2023/07/25 07:38:21;;;;;;;;;;;25.50;73.10;;;;;;4984595;28;19914;-77
2023/07/25 07:40:47;;;;;;;;;;;26.00;72.90;;;;;;4984454;28;19918;-77
2023/07/25 07:43:15;;;;;;;;;;;26.40;72.60;;;;;;4969452;28;20013;-72
2023/07/25 07:45:40;;;;;;;;;;;26.80;72.80;;;;;;4969587;28;19917;-77
2023/07/25 07:48:06;;;;;;;;;;;27.20;72.90;;;;;;4969359;28;19914;-70
2023/07/25 07:50:33;;;;;;;;;;;27.60;73.30;;;;;;4969490;28;19918;-76
2023/07/25 07:52:59;;;;;;;;;;;28.00;73.40;;;;;;4951974;28;19910;-77
2023/07/25 07:55:25;;;;;;;;;;;28.30;73.40;;;;;;4969415;28;19957;-76
2023/07/25 07:57:50;;;;;;;;;;;28.70;73.60;;;;;;4952152;28;19914;-77
2023/07/25 08:00:16;;;;;;;;;;;28.90;73.80;;;;;;4951672;28;19914;-70
2023/07/25 08:02:42;;;;;;;;;;;29.10;73.90;;;;;;4969165;28;19917;-77
2023/07/25 08:05:08;;;;;;;;;;;29.30;73.70;;;;;;4969191;28;20016;-77
2023/07/25 08:07:34;;;;;;;;;;;29.40;73.80;;;;;;4969143;28;20099;-77
2023/07/25 08:10:00;;;;;;;;;;;29.60;74.30;;;;;;4969099;28;20338;-77
2023/07/25 08:12:26;;;;;;;;;;;29.60;75.00;;;;;;4968895;28;20360;-77
2023/07/25 08:14:51;;;;;;;;;;;29.60;75.60;;;;;;4968612;28;19972;-76
2023/07/25 08:17:17;;;;;;;;;;;29.70;75.70;;;;;;4969592;28;19948;-78
2023/07/25 08:19:43;;;;;;;;;;;30.00;75.80;;;;;;4970702;28;19969;-81
2023/07/25 08:22:11;;;;;;;;;;;30.30;75.60;;;;;;4985020;28;19914;-81
2023/07/25 08:24:38;;;;;;;;;;;30.60;75.50;;;;;;4985254;28;19968;-80
2023/07/25 08:27:04;;;;;;;;;;;30.60;75.30;;;;;;4972359;28;19910;-80
2023/07/25 08:29:29;;;;;;;;;;;30.70;75.90;;;;;;4986330;28;19926;-79
2023/07/25 08:31:55;;;;;;;;;;;31.10;76.30;;;;;;4985951;28;19972;-79
2023/07/25 08:34:20;;;;;;;;;;;31.40;76.20;;;;;;4971394;28;19925;-79
2023/07/25 08:36:46;;;;;;;;;;;31.10;75.70;;;;;;4970995;28;20107;-77
2023/07/25 08:39:12;;;;;;;;;;;31.00;76.90;;;;;;4970982;28;19921;-80
2023/07/25 08:42:03;;;;;;;;;;;31.40;77.50;;;;;;4985972;28;20315;-80
2023/07/25 08:44:29;;;;;;;;;;;31.90;77.40;;;;;;4971109;28;20001;-77
2023/07/25 08:46:56;;;;;;;;;;;31.50;75.80;;;;;;4983616;28;20020;-75
2023/07/25 08:49:23;;;;;;;;;;;30.60;75.70;;;;;;4983629;28;20326;-73
2023/07/25 08:51:51;;;;;;;;;;;30.50;76.90;;;;;;4969663;28;19917;-79
2023/07/25 08:54:23;;;;;;;;;;;30.70;78.10;;;;;;4975475;28;19914;-78
2023/07/25 08:56:49;;;;;;;;;;;31.20;78.70;;;;;;4990915;28;19934;-79
2023/07/25 08:59:15;;;;;;;;;;;31.50;78.40;;;;;;4959201;28;19938;-79
2023/07/25 09:01:41;;;;;;;;;;;31.50;77.50;;;;;;4977261;28;20278;-79
2023/07/25 09:04:08;;;;;;;;;;;31.10;77.30;;;;;;4976495;28;19973;-79
2023/07/25 09:06:33;;;;;;;;;;;31.20;78.30;;;;;;4976731;28;19914;-79
2023/07/25 09:09:00;;;;;;;;;;;31.60;78.20;;;;;;4988663;28;19994;-80
2023/07/25 09:11:26;;;;;;;;;;;32.10;78.30;;;;;;4972225;28;19922;-78
2023/07/25 09:13:51;;;;;;;;;;;32.60;78.40;;;;;;4973689;28;19979;-80
2023/07/25 09:16:17;;;;;;;;;;;33.30;78.70;;;;;;4969766;28;20315;-77
2023/07/25 09:18:42;;;;;;;;;;;33.40;78.00;;;;;;4971157;28;19957;-80
2023/07/25 09:21:08;;;;;;;;;;;33.20;77.90;;;;;;4970017;28;19989;-79
2023/07/25 09:23:34;;;;;;;;;;;33.20;78.70;;;;;;4972219;28;19941;-79
2023/07/25 09:26:04;;;;;;;;;;;33.40;78.70;;;;;;4958746;28;19949;-77
2023/07/25 09:28:30;;;;;;;;;;;33.30;78.60;;;;;;4979808;28;19917;-81
2023/07/25 09:30:56;;;;;;;;;;;33.30;78.70;;;;;;4984428;28;19929;-81
2023/07/25 09:33:25;;;;;;;;;;;33.20;78.60;;;;;;4983016;28;19914;-80
2023/07/25 09:35:51;;;;;;;;;;;33.40;79.00;;;;;;4985312;28;19923;-80
2023/07/25 09:38:17;;;;;;;;;;;33.80;79.60;;;;;;4968341;28;19914;-80
2023/07/25 09:40:42;;;;;;;;;;;34.10;79.90;;;;;;4982210;28;20392;-80
2023/07/25 09:43:08;;;;;;;;;;;34.40;79.50;;;;;;4964687;28;19925;-67
2023/07/25 09:45:36;;;;;;;;;;;34.50;79.30;;;;;;4976964;28;19914;-81
2023/07/25 09:48:02;;;;;;;;;;;34.70;79.30;;;;;;4963032;28;19910;-81
2023/07/25 09:50:33;;;;;;;;;;;34.50;79.30;;;;;;4980692;28;19914;-81
2023/07/25 09:53:00;;;;;;;;;;;33.40;79.30;;;;;;4979750;28;19911;-80
2023/07/25 09:55:29;;;;;;;;;;;33.10;80.50;;;;;;4977110;28;19937;-81
2023/07/25 09:57:55;;;;;;;;;;;33.30;80.70;;;;;;4977063;28;19914;-81
2023/07/25 10:00:20;;;;;;;;;;;33.80;80.90;;;;;;4978699;28;19914;-81
2023/07/25 10:02:46;;;;;;;;;;;34.10;80.10;;;;;;4975629;28;19914;-81
2023/07/25 10:05:12;;;;;;;;;;;34.20;79.40;;;;;;4979044;28;20483;-80
2023/07/25 10:07:38;;;;;;;;;;;34.30;79.50;;;;;;4978113;28;20089;-80
2023/07/25 10:10:04;;;;;;;;;;;34.60;79.60;;;;;;4978959;28;19914;-80
2023/07/25 10:12:29;;;;;;;;;;;35.10;79.70;;;;;;4948527;28;20286;-81
2023/07/25 10:14:55;;;;;;;;;;;35.60;79.70;;;;;;4961360;28;19970;-81
2023/07/25 10:17:22;;;;;;;;;;;35.50;79.50;;;;;;4974963;28;19914;-81
2023/07/25 10:19:49;;;;;;;;;;;34.70;79.60;;;;;;4957752;28;19911;-79
2023/07/25 10:22:15;;;;;;;;;;;33.30;79.80;;;;;;4976436;28;20286;-80
2023/07/25 10:24:41;;;;;;;;;;;32.60;81.10;;;;;;4961173;28;19918;-80
2023/07/25 10:27:09;;;;;;;;;;;33.00;82.00;;;;;;4961945;28;19968;-80
2023/07/25 10:29:38;;;;;;;;;;;33.80;82.30;;;;;;4975154;28;20542;-79
2023/07/25 10:32:04;;;;;;;;;;;34.50;81.40;;;;;;4976652;28;20386;-79
2023/07/25 10:34:44;;;;;;;;;;;34.60;79.60;;;;;;4981349;28;20295;-79
2023/07/25 10:37:20;;;;;;;;;;;34.60;80.20;;;;;;4974303;28;19942;-79
2023/07/25 10:39:46;;;;;;;;;;;35.00;80.10;;;;;;4974982;28;19934;-79
2023/07/25 10:42:17;;;;;;;;;;;34.30;79.60;;;;;;4974927;28;19918;-79
2023/07/25 10:44:43;;;;;;;;;;;33.20;78.70;;;;;;4975057;28;19937;-79
2023/07/25 10:47:27;;;;;;;;;;;31.90;78.50;;;;;;4989746;28;19915;-79
2023/07/25 10:49:53;;;;;;;;;;;31.30;81.10;;;;;;4975816;28;19957;-80
2023/07/25 10:52:39;;;;;;;;;;;31.70;82.40;;;;;;4977322;28;19910;-80
2023/07/25 10:55:04;;;;;;;;;;;32.50;82.30;;;;;;4960991;28;19911;-79
2023/07/25 10:57:30;;;;;;;;;;;33.20;81.30;;;;;;4978964;28;20004;-78
2023/07/25 10:59:59;;;;;;;;;;;33.30;79.90;;;;;;4972615;28;19918;-80
2023/07/25 11:02:29;;;;;;;;;;;32.90;79.20;;;;;;4976716;28;19914;-79
2023/07/25 11:05:12;;;;;;;;;;;32.20;78.50;;;;;;4976214;28;20378;-80
2023/07/25 11:07:58;;;;;;;;;;;31.40;78.80;;;;;;4977669;28;19917;-76
2023/07/25 11:10:25;;;;;;;;;;;31.80;80.70;;;;;;4980175;28;20577;-79
2023/07/25 11:12:55;;;;;;;;;;;32.70;81.10;;;;;;4977586;28;19910;-79
2023/07/25 11:15:20;;;;;;;;;;;33.30;80.70;;;;;;4978669;28;19915;-77
2023/07/25 11:17:46;;;;;;;;;;;33.10;79.30;;;;;;4972950;28;19922;-77
2023/07/25 11:20:12;;;;;;;;;;;32.70;79.10;;;;;;4972913;28;19922;-79
2023/07/25 11:22:38;;;;;;;;;;;32.70;79.80;;;;;;4973825;28;20510;-82
2023/07/25 11:25:07;;;;;;;;;;;32.70;78.90;;;;;;4973110;28;19964;-82
2023/07/25 11:27:33;;;;;;;;;;;32.00;78.40;;;;;;4974053;28;19921;-79
2023/07/25 11:30:09;;;;;;;;;;;32.20;80.10;;;;;;4973247;28;20012;-80
2023/07/25 11:32:34;;;;;;;;;;;32.90;80.70;;;;;;4969027;28;19942;-81
2023/07/25 11:35:00;;;;;;;;;;;33.30;79.50;;;;;;4971669;28;19918;-80
2023/07/25 11:37:26;;;;;;;;;;;32.70;78.20;;;;;;4966485;28;19914;-81
2023/07/25 11:39:51;;;;;;;;;;;32.20;78.80;;;;;;4967965;28;19918;-79
2023/07/25 11:42:18;;;;;;;;;;;31.70;78.70;;;;;;4957726;28;19915;-81
2023/07/25 11:44:44;;;;;;;;;;;31.40;79.40;;;;;;4956886;28;19914;-82
2023/07/25 11:47:11;;;;;;;;;;;31.30;79.10;;;;;;4962733;28;21327;-79
2023/07/25 11:49:36;;;;;;;;;;;31.40;79.90;;;;;;4960992;28;19929;-76
2023/07/25 11:52:03;;;;;;;;;;;32.00;80.30;;;;;;4957497;28;19922;-75
2023/07/25 11:54:29;;;;;;;;;;;32.20;79.70;;;;;;4939894;28;19914;-78
2023/07/25 11:56:55;;;;;;;;;;;32.50;79.50;;;;;;4961711;28;19915;-78
2023/07/25 11:59:20;;;;;;;;;;;32.40;79.00;;;;;;4953263;29;20363;-80
2023/07/25 12:01:46;;;;;;;;;;;32.00;78.90;;;;;;4954409;28;20004;-81
2023/07/25 12:04:12;;;;;;;;;;;31.90;78.80;;;;;;4962124;28;19988;-78
2023/07/25 12:06:38;;;;;;;;;;;31.40;78.20;;;;;;4959842;28;19918;-77
2023/07/25 12:09:04;;;;;;;;;;;30.70;78.00;;;;;;4968483;28;19914;-81
2023/07/25 12:11:30;;;;;;;;;;;30.00;77.60;;;;;;4962246;28;19985;-81
2023/07/25 12:13:57;;;;;;;;;;;29.50;78.00;;;;;;4952554;29;20390;-79
2023/07/25 12:16:42;;;;;;;;;;;29.40;79.40;;;;;;4956722;28;19917;-79
2023/07/25 12:19:09;;;;;;;;;;;30.00;80.60;;;;;;4954922;28;19924;-79
2023/07/25 12:21:35;;;;;;;;;;;30.30;79.40;;;;;;4952435;28;21254;-80
2023/07/25 12:24:02;;;;;;;;;;;30.10;78.30;;;;;;4957246;28;19994;-78
2023/07/25 12:26:28;;;;;;;;;;;29.60;77.60;;;;;;4951657;28;19954;-76
2023/07/25 12:28:54;;;;;;;;;;;29.10;77.50;;;;;;4955121;28;19958;-76
2023/07/25 12:31:20;;;;;;;;;;;28.70;77.60;;;;;;4935507;29;19919;-78
2023/07/25 12:33:47;;;;;;;;;;;28.20;77.50;;;;;;4951751;29;19914;-76
2023/07/25 12:36:14;;;;;;;;;;;27.80;77.80;;;;;;4951926;29;20410;-75
2023/07/25 12:38:39;;;;;;;;;;;27.60;78.30;;;;;;4951163;28;19917;-76
2023/07/25 12:41:05;;;;;;;;;;;28.00;79.40;;;;;;4951911;29;19915;-76
2023/07/25 12:43:31;;;;;;;;;;;28.30;79.30;;;;;;4951937;29;19919;-76
2023/07/25 12:45:56;;;;;;;;;;;28.40;78.70;;;;;;4951969;29;20283;-78
2023/07/25 12:48:22;;;;;;;;;;;28.40;78.50;;;;;;4936531;29;19915;-81
2023/07/25 12:50:49;;;;;;;;;;;28.60;78.70;;;;;;4937017;29;19915;-81
2023/07/25 12:53:14;;;;;;;;;;;28.70;78.70;;;;;;4937860;29;19979;-81
2023/07/25 12:55:43;;;;;;;;;;;28.70;78.30;;;;;;4954085;29;20010;-80
2023/07/25 12:58:09;;;;;;;;;;;28.80;78.80;;;;;;4950402;28;19987;-81
2023/07/25 13:00:35;;;;;;;;;;;28.70;78.10;;;;;;4952317;29;19993;-80
2023/07/25 13:03:00;;;;;;;;;;;28.70;78.00;;;;;;4936306;29;19919;-81
2023/07/25 13:05:27;;;;;;;;;;;28.50;77.70;;;;;;4954976;29;19936;-82
2023/07/25 13:07:53;;;;;;;;;;;28.30;77.50;;;;;;4938885;29;20001;-83
2023/07/25 13:10:18;;;;;;;;;;;28.00;77.10;;;;;;4955308;29;20578;-80
2023/07/25 13:12:44;;;;;;;;;;;27.70;77.10;;;;;;4953644;29;20001;-83
2023/07/25 13:15:10;;;;;;;;;;;27.50;77.20;;;;;;4952407;29;19914;-78
2023/07/25 13:17:35;;;;;;;;;;;27.40;77.30;;;;;;4952096;28;19932;-79
2023/07/25 13:20:02;;;;;;;;;;;27.20;77.40;;;;;;4951491;29;19914;-81
2023/07/25 13:22:27;;;;;;;;;;;27.10;77.60;;;;;;4934678;29;20460;-83
2023/07/25 13:24:55;;;;;;;;;;;27.00;77.50;;;;;;4951857;29;19945;-78
2023/07/25 13:27:25;;;;;;;;;;;26.90;77.20;;;;;;4953944;28;20367;-81
2023/07/25 13:29:51;;;;;;;;;;;26.80;77.20;;;;;;4953550;29;19927;-78
2023/07/25 13:32:17;;;;;;;;;;;26.80;77.20;;;;;;4934147;29;19999;-81
2023/07/25 13:34:42;;;;;;;;;;;26.90;77.40;;;;;;4957669;28;19914;-80
2023/07/25 13:37:08;;;;;;;;;;;26.90;77.10;;;;;;4974676;28;20363;-80
2023/07/25 13:39:33;;;;;;;;;;;26.80;76.50;;;;;;4959397;28;19941;-82
2023/07/25 13:41:59;;;;;;;;;;;26.80;76.70;;;;;;4943996;29;19925;-82
2023/07/25 13:44:24;;;;;;;;;;;26.80;77.10;;;;;;4955810;29;19921;-82
2023/07/25 13:46:50;;;;;;;;;;;26.90;77.20;;;;;;4942212;28;19921;-83
2023/07/25 13:49:16;;;;;;;;;;;26.90;77.00;;;;;;4976420;28;19918;-84
2023/07/25 13:51:42;;;;;;;;;;;27.10;77.00;;;;;;4978240;28;20008;-83
2023/07/25 13:54:07;;;;;;;;;;;27.10;76.50;;;;;;4976214;28;19970;-82
2023/07/25 13:56:33;;;;;;;;;;;27.00;76.50;;;;;;4976682;28;20054;-83
2023/07/25 13:58:58;;;;;;;;;;;27.10;76.70;;;;;;4980066;28;19914;-83
2023/07/25 14:01:24;;;;;;;;;;;27.00;76.60;;;;;;4978527;28;19915;-82
2023/07/25 14:03:50;;;;;;;;;;;26.90;76.30;;;;;;4946322;29;20379;-81
2023/07/25 14:06:15;;;;;;;;;;;26.60;75.90;;;;;;4954922;29;19918;-81
2023/07/25 14:08:41;;;;;;;;;;;26.20;76.10;;;;;;4954982;28;20033;-77
2023/07/25 14:11:07;;;;;;;;;;;26.00;76.50;;;;;;4954401;29;19915;-80